createdAt,value
2019-01-11T00:01:57.921Z,5.41
2019-01-11T00:04:27.863Z,5.36
2019-01-11T00:06:57.842Z,5.27
2019-01-11T00:09:27.835Z,5.31
2019-01-11T00:11:57.826Z,5.29
2019-01-11T00:14:27.946Z,5.26
2019-01-11T00:16:57.338Z,5.23
2019-01-11T00:19:27.398Z,5.24
2019-01-11T00:21:57.551Z,5.27
2019-01-11T00:24:27.558Z,5.24
2019-01-11T00:26:57.543Z,5.21
2019-01-11T00:29:27.550Z,5.22
2019-01-11T00:31:57.476Z,5.27
2019-01-11T00:34:30.339Z,5.26
2019-01-11T00:37:00.293Z,5.23
2019-01-11T00:39:30.249Z,5.21
2019-01-11T00:42:00.107Z,5.15
2019-01-11T00:44:30.048Z,5.12
2019-01-11T00:47:00.766Z,5.06
2019-01-11T00:49:30.815Z,5.05
2019-01-11T00:52:00.771Z,5.07
2019-01-11T00:54:30.709Z,5.12
2019-01-11T00:57:00.432Z,5.12
2019-01-11T00:59:30.551Z,5.10
2019-01-11T01:02:00.435Z,5.11
2019-01-11T01:04:30.303Z,5.11
2019-01-11T01:07:00.470Z,5.11
2019-01-11T01:09:30.329Z,5.09
2019-01-11T01:12:00.191Z,5.06
2019-01-11T01:14:30.188Z,4.97
2019-01-11T01:17:00.080Z,4.88
2019-01-11T01:19:29.946Z,4.83
2019-01-11T01:22:00.006Z,4.84
2019-01-11T01:24:29.397Z,4.85
2019-01-11T01:26:59.228Z,4.83
2019-01-11T01:29:29.246Z,4.76
2019-01-11T01:31:59.149Z,4.68
2019-01-11T01:34:28.692Z,4.60
2019-01-11T01:36:58.107Z,4.53
2019-01-11T01:39:28.106Z,4.47
2019-01-11T01:41:57.968Z,4.46
2019-01-11T01:44:27.926Z,4.50
2019-01-11T01:46:57.758Z,4.58
2019-01-11T01:49:28.026Z,4.60
2019-01-11T01:51:57.842Z,4.59
2019-01-11T01:54:28.005Z,4.55
2019-01-11T01:56:57.862Z,4.48
2019-01-11T01:59:27.788Z,4.48
2019-01-11T02:01:57.921Z,4.49
2019-01-11T02:04:27.963Z,4.51
2019-01-11T02:06:58.028Z,4.51
2019-01-11T02:09:27.993Z,4.50
2019-01-11T02:11:57.892Z,4.51
2019-01-11T02:14:27.888Z,4.54
2019-01-11T02:16:57.513Z,4.52
2019-01-11T02:19:32.943Z,4.51
2019-01-11T02:21:59.175Z,4.47
2019-01-11T02:24:29.060Z,4.38
2019-01-11T02:26:58.881Z,4.33
2019-01-11T02:29:28.914Z,4.31
2019-01-11T02:31:58.722Z,4.28
2019-01-11T02:34:28.751Z,4.23
2019-01-11T02:36:58.671Z,4.15
2019-01-11T02:39:28.442Z,4.03
2019-01-11T02:41:58.270Z,3.97
2019-01-11T02:44:28.207Z,3.90
2019-01-11T02:46:57.909Z,3.89
2019-01-11T02:49:27.678Z,3.89
2019-01-11T02:51:58.174Z,3.92
2019-01-11T02:54:28.242Z,3.96
2019-01-11T02:56:58.167Z,4.00
2019-01-11T02:59:28.138Z,4.01
2019-01-11T03:01:57.713Z,4.01
2019-01-11T03:04:27.525Z,3.98
2019-01-11T03:06:57.428Z,3.92
2019-01-11T03:09:26.606Z,3.85
2019-01-11T03:11:56.378Z,3.84
2019-01-11T03:14:26.381Z,3.83
2019-01-11T03:16:56.219Z,3.89
2019-01-11T03:19:25.404Z,3.91
2019-01-11T03:21:55.544Z,3.94
2019-01-11T03:24:25.296Z,3.96
2019-01-11T03:26:54.643Z,3.93
2019-01-11T03:29:24.746Z,3.87
2019-01-11T03:31:54.735Z,3.86
2019-01-11T03:34:24.545Z,3.88
2019-01-11T03:36:54.140Z,3.92
2019-01-11T03:39:23.534Z,3.96
2019-01-11T03:41:54.223Z,4.02
2019-01-11T03:44:24.324Z,4.09
2019-01-11T03:46:54.103Z,4.20
2019-01-11T03:49:24.052Z,4.29
2019-01-11T03:51:54.317Z,4.35
2019-01-11T03:54:24.450Z,4.41
2019-01-11T03:56:54.297Z,4.48
2019-01-11T03:59:24.331Z,4.55
2019-01-11T04:01:54.372Z,4.60
2019-01-11T04:04:24.234Z,4.64
2019-01-11T04:06:54.208Z,4.69
2019-01-11T04:09:24.211Z,4.72
2019-01-11T04:11:54.135Z,4.75
2019-01-11T04:14:24.108Z,4.80
2019-01-11T04:16:53.999Z,4.84
2019-01-11T04:19:23.824Z,4.96
2019-01-11T04:22:02.172Z,5.07
2019-01-11T04:24:33.646Z,5.13
2019-01-11T04:27:03.456Z,5.22
2019-01-11T04:29:33.446Z,5.27
2019-01-11T04:32:03.143Z,5.30
2019-01-11T04:34:32.967Z,5.33
2019-01-11T04:37:02.953Z,5.36
2019-01-11T04:39:32.806Z,5.35
2019-01-11T04:42:02.697Z,5.28
2019-01-11T04:44:32.713Z,5.21
2019-01-11T04:47:02.121Z,5.16
2019-01-11T04:49:31.880Z,5.14
2019-01-11T04:52:07.689Z,5.09
2019-01-11T04:54:37.573Z,5.00
2019-01-11T04:57:07.992Z,4.85
2019-01-11T04:59:37.959Z,4.73
2019-01-11T05:02:07.881Z,4.65
2019-01-11T05:04:37.734Z,4.58
2019-01-11T05:07:07.654Z,4.51
2019-01-11T05:09:37.695Z,4.46
2019-01-11T05:12:07.612Z,4.37
2019-01-11T05:14:37.431Z,4.28
2019-01-11T05:17:07.243Z,4.23
2019-01-11T05:19:36.936Z,4.15
2019-01-11T05:22:06.767Z,4.11
2019-01-11T05:24:36.652Z,4.04
2019-01-11T05:27:07.234Z,3.99
2019-01-11T05:29:37.119Z,3.95
2019-01-11T05:32:07.026Z,3.89
2019-01-11T05:34:36.831Z,3.87
2019-01-11T05:37:06.443Z,3.87
2019-01-11T05:39:36.383Z,3.84
2019-01-11T05:42:06.116Z,3.82
2019-01-11T05:44:35.564Z,3.77
2019-01-11T05:47:05.386Z,3.71
2019-01-11T05:49:35.078Z,3.68
2019-01-11T05:52:05.044Z,3.66
2019-01-11T05:54:34.925Z,3.63
2019-01-11T05:57:04.745Z,3.56
2019-01-11T05:59:35.147Z,3.52
2019-01-11T06:02:04.946Z,3.51
2019-01-11T06:04:36.280Z,3.48
2019-01-11T06:07:07.809Z,3.39
2019-01-11T06:09:37.511Z,3.36
2019-01-11T06:12:07.396Z,3.32
2019-01-11T06:14:37.405Z,3.28
2019-01-11T06:17:07.359Z,3.23
2019-01-11T06:19:37.357Z,3.19
2019-01-11T06:22:07.337Z,3.13
2019-01-11T06:24:37.263Z,3.11
2019-01-11T06:27:07.068Z,3.08
2019-01-11T06:29:37.106Z,3.10
2019-01-11T06:32:06.906Z,3.12
2019-01-11T06:34:36.642Z,3.12
2019-01-11T06:37:06.467Z,3.14
2019-01-11T06:39:36.375Z,3.13
2019-01-11T06:42:07.611Z,3.15
2019-01-11T06:44:39.068Z,3.12
2019-01-11T06:47:09.145Z,3.05
2019-01-11T06:49:39.057Z,2.96
2019-01-11T06:52:08.895Z,2.90
2019-01-11T06:54:38.404Z,2.86
2019-01-11T06:57:08.289Z,2.85
2019-01-11T06:59:38.389Z,2.84
2019-01-11T07:02:08.660Z,2.84
2019-01-11T07:04:38.649Z,2.85
2019-01-11T07:07:08.681Z,2.85
2019-01-11T07:09:38.585Z,2.86
2019-01-11T07:12:08.099Z,2.86
2019-01-11T07:14:38.123Z,2.87
2019-01-11T07:17:07.651Z,2.90
2019-01-11T07:19:37.605Z,2.88
2019-01-11T07:22:07.326Z,2.83
2019-01-11T07:24:36.845Z,2.76
2019-01-11T07:27:06.390Z,2.72
2019-01-11T07:29:35.798Z,2.66
2019-01-11T07:32:05.609Z,2.57
2019-01-11T07:34:35.555Z,2.51
2019-01-11T07:37:05.541Z,2.48
2019-01-11T07:39:35.525Z,2.47
2019-01-11T07:42:04.982Z,2.46
2019-01-11T07:44:35.060Z,2.39
2019-01-11T07:47:04.639Z,2.40
2019-01-11T07:49:34.539Z,2.37
2019-01-11T07:52:04.536Z,2.32
2019-01-11T07:54:34.579Z,2.28
2019-01-11T07:57:04.099Z,2.25
2019-01-11T07:59:34.159Z,2.24
2019-01-11T08:02:04.320Z,2.22
2019-01-11T08:04:34.378Z,2.22
2019-01-11T08:07:04.338Z,2.24
2019-01-11T08:09:34.218Z,2.28
2019-01-11T08:12:04.009Z,2.31
2019-01-11T08:14:33.975Z,2.30
2019-01-11T08:17:03.720Z,2.27
2019-01-11T08:19:33.548Z,2.28
2019-01-11T08:22:03.469Z,2.31
2019-01-11T08:24:33.368Z,2.32
2019-01-11T08:27:02.808Z,2.34
2019-01-11T08:29:32.647Z,2.38
2019-01-11T08:32:02.816Z,2.41
2019-01-11T08:34:32.521Z,2.47
2019-01-11T08:37:01.952Z,2.54
2019-01-11T08:39:32.554Z,2.62
2019-01-11T08:42:02.470Z,2.70
2019-01-11T08:44:31.590Z,2.74
2019-01-11T08:47:01.985Z,2.80
2019-01-11T08:49:31.893Z,2.89
2019-01-11T08:52:01.716Z,2.97
2019-01-11T08:54:31.409Z,3.03
2019-01-11T08:57:01.526Z,3.09
2019-01-11T08:59:30.654Z,3.19
2019-01-11T09:01:59.837Z,3.28
2019-01-11T09:04:29.892Z,3.39
2019-01-11T09:07:00.537Z,3.52
2019-01-11T09:09:30.345Z,3.65
2019-01-11T09:11:59.686Z,3.75
2019-01-11T09:14:36.379Z,3.84
2019-01-11T09:17:06.084Z,3.92
2019-01-11T09:19:35.778Z,4.03
2019-01-11T09:22:05.286Z,4.16
2019-01-11T09:24:34.667Z,4.31
2019-01-11T09:27:03.957Z,4.49
2019-01-11T09:29:33.576Z,4.69
2019-01-11T09:32:03.160Z,5.01
2019-01-11T09:34:32.606Z,5.40
2019-01-11T09:37:02.402Z,5.86
2019-01-11T09:39:32.157Z,6.26
2019-01-11T09:42:02.180Z,6.58
2019-01-11T09:44:32.348Z,6.86
2019-01-11T09:47:10.290Z,7.12
2019-01-11T09:49:42.459Z,7.36
2019-01-11T09:52:12.667Z,7.58
2019-01-11T09:54:42.628Z,7.77
2019-01-11T09:57:12.614Z,7.96
2019-01-11T09:59:42.537Z,8.10
2019-01-11T10:02:26.386Z,8.23
2019-01-11T10:04:55.899Z,8.38
2019-01-11T10:07:26.105Z,8.57
2019-01-11T10:09:56.062Z,8.73
2019-01-11T10:12:26.117Z,8.87
2019-01-11T10:14:55.992Z,9.03
2019-01-11T10:17:25.868Z,9.17
2019-01-11T10:19:55.823Z,9.38
2019-01-11T10:22:25.629Z,9.52
2019-01-11T10:24:55.512Z,9.73
2019-01-11T10:27:25.586Z,9.86
2019-01-11T10:29:55.351Z,10.01
2019-01-11T10:32:25.232Z,10.18
2019-01-11T10:34:55.044Z,10.46
2019-01-11T10:37:24.992Z,10.55
2019-01-11T10:39:54.833Z,10.68
2019-01-11T10:42:24.804Z,10.90
2019-01-11T10:44:54.515Z,11.04
2019-01-11T10:47:24.496Z,11.15
2019-01-11T10:49:54.289Z,11.32
2019-01-11T10:52:24.066Z,11.45
2019-01-11T10:54:54.171Z,11.61
2019-01-11T10:57:23.850Z,11.79
2019-01-11T10:59:53.633Z,11.90
2019-01-11T11:02:23.632Z,12.06
2019-01-11T11:04:53.424Z,12.17
2019-01-11T11:07:23.331Z,12.37
2019-01-11T11:09:53.257Z,12.53
2019-01-11T11:12:24.004Z,12.69
2019-01-11T11:14:54.028Z,12.81
2019-01-11T11:17:24.129Z,13.02
2019-01-11T11:19:54.064Z,13.14
2019-01-11T11:22:24.071Z,13.32
2019-01-11T11:24:54.208Z,13.43
2019-01-11T11:27:24.188Z,13.51
2019-01-11T11:29:54.268Z,13.57
2019-01-11T11:32:25.461Z,13.61
2019-01-11T11:34:55.375Z,13.72
2019-01-11T11:37:26.756Z,13.87
2019-01-11T11:39:56.755Z,13.96
2019-01-11T11:42:25.975Z,14.10
2019-01-11T11:44:55.680Z,14.23
2019-01-11T11:47:25.743Z,14.35
2019-01-11T11:49:55.560Z,14.49
2019-01-11T11:52:25.199Z,14.70
2019-01-11T11:54:55.321Z,14.78
2019-01-11T11:57:25.424Z,14.90
2019-01-11T11:59:55.330Z,15.06
2019-01-11T12:02:25.421Z,15.16
2019-01-11T12:04:55.271Z,15.34
2019-01-11T12:07:25.398Z,15.41
2019-01-11T12:09:55.783Z,15.57
2019-01-11T12:12:25.535Z,15.76
2019-01-11T12:14:55.731Z,15.86
2019-01-11T12:17:25.850Z,16.03
2019-01-11T12:19:57.092Z,16.10
2019-01-11T12:22:26.857Z,16.21
2019-01-11T12:24:56.976Z,16.39
2019-01-11T12:27:26.667Z,16.54
2019-01-11T12:29:56.698Z,16.67
2019-01-11T12:32:26.846Z,16.80
2019-01-11T12:34:56.841Z,16.96
2019-01-11T12:37:26.754Z,17.03
2019-01-11T12:39:56.739Z,17.08
2019-01-11T12:42:26.748Z,17.22
2019-01-11T12:44:56.569Z,17.42
2019-01-11T12:47:26.504Z,17.56
2019-01-11T12:49:56.337Z,17.66
2019-01-11T12:52:26.343Z,17.78
2019-01-11T12:54:56.373Z,17.94
2019-01-11T12:57:26.463Z,18.12
2019-01-11T12:59:56.283Z,18.28
2019-01-11T13:02:26.350Z,18.36
2019-01-11T13:04:56.298Z,18.42
2019-01-11T13:07:26.421Z,18.45
2019-01-11T13:09:56.313Z,18.52
2019-01-11T13:12:26.254Z,18.58
2019-01-11T13:14:56.271Z,18.65
2019-01-11T13:17:26.620Z,18.79
2019-01-11T13:19:56.543Z,18.93
2019-01-11T13:22:26.508Z,19.02
2019-01-11T13:24:56.563Z,19.10
2019-01-11T13:27:26.406Z,19.18
2019-01-11T13:29:56.327Z,19.25
2019-01-11T13:32:26.134Z,19.25
2019-01-11T13:34:55.915Z,19.30
2019-01-11T13:37:25.793Z,19.39
2019-01-11T13:39:55.823Z,19.47
2019-01-11T13:42:25.655Z,19.52
2019-01-11T13:44:55.659Z,19.57
2019-01-11T13:47:25.679Z,19.57
2019-01-11T13:49:55.475Z,19.59
2019-01-11T13:52:25.378Z,19.68
2019-01-11T13:54:55.411Z,19.75
2019-01-11T13:57:25.283Z,19.80
2019-01-11T13:59:55.114Z,19.84
2019-01-11T14:02:25.231Z,19.83
2019-01-11T14:04:55.074Z,19.82
2019-01-11T14:07:25.093Z,19.87
2019-01-11T14:09:54.918Z,19.88
2019-01-11T14:12:24.768Z,19.90
2019-01-11T14:15:13.719Z,19.95
2019-01-11T14:17:44.169Z,19.96
2019-01-11T14:20:14.142Z,20.00
2019-01-11T14:22:44.142Z,20.04
2019-01-11T14:25:14.010Z,20.08
2019-01-11T14:27:43.043Z,20.10
2019-01-11T14:30:15.545Z,20.14
2019-01-11T14:32:45.317Z,20.15
2019-01-11T14:35:15.212Z,20.20
2019-01-11T14:37:45.370Z,20.22
2019-01-11T14:40:16.676Z,20.22
2019-01-11T14:42:46.382Z,20.25
2019-01-11T14:45:17.935Z,20.26
2019-01-11T14:47:47.618Z,20.34
2019-01-11T14:50:19.178Z,20.39
2019-01-11T14:52:49.064Z,20.40
2019-01-11T14:55:18.797Z,20.41
2019-01-11T14:57:48.508Z,20.40
2019-01-11T15:00:23.016Z,20.39
2019-01-11T15:02:52.721Z,20.46
2019-01-11T15:05:22.633Z,20.51
2019-01-11T15:07:52.662Z,20.54
2019-01-11T15:10:22.426Z,20.57
2019-01-11T15:12:52.179Z,20.64
2019-01-11T15:15:22.007Z,20.71
2019-01-11T15:17:52.120Z,20.73
2019-01-11T15:20:22.570Z,20.75
2019-01-11T15:22:52.444Z,20.74
2019-01-11T15:25:21.864Z,20.71
2019-01-11T15:27:51.391Z,20.68
2019-01-11T15:30:21.807Z,20.65
2019-01-11T15:32:57.282Z,20.61
2019-01-11T15:35:27.555Z,20.58
2019-01-11T15:37:56.784Z,20.55
2019-01-11T15:40:26.894Z,20.52
2019-01-11T15:42:56.278Z,20.51
2019-01-11T15:45:25.617Z,20.46
2019-01-11T15:47:56.280Z,20.40
2019-01-11T15:50:44.229Z,20.36
2019-01-11T15:53:13.682Z,20.27
2019-01-11T15:55:43.037Z,20.20
2019-01-11T15:58:12.498Z,20.14
2019-01-11T16:00:43.816Z,20.09
2019-01-11T16:03:13.417Z,20.04
2019-01-11T16:05:42.726Z,19.98
2019-01-11T16:08:12.138Z,19.93
2019-01-11T16:10:47.218Z,19.90
2019-01-11T16:13:17.178Z,19.87
2019-01-11T16:15:49.495Z,19.82
2019-01-11T16:18:22.387Z,19.76
2019-01-11T16:20:51.527Z,19.66
2019-01-11T16:23:21.048Z,19.56
2019-01-11T16:25:50.646Z,19.50
2019-01-11T16:28:20.147Z,19.44
2019-01-11T16:30:49.886Z,19.34
2019-01-11T16:33:19.499Z,19.23
2019-01-11T16:35:48.838Z,19.15
2019-01-11T16:38:18.307Z,19.02
2019-01-11T16:40:47.716Z,18.90
2019-01-11T16:43:17.330Z,18.83
2019-01-11T16:45:47.377Z,18.70
2019-01-11T16:48:16.887Z,18.50
2019-01-11T16:50:46.317Z,18.33
2019-01-11T16:53:15.977Z,18.16
2019-01-11T16:55:46.545Z,18.00
2019-01-11T16:58:16.186Z,17.79
2019-01-11T17:00:45.857Z,17.53
2019-01-11T17:03:15.296Z,17.20
2019-01-11T17:05:44.934Z,16.91
2019-01-11T17:08:14.288Z,16.63
2019-01-11T17:10:43.726Z,16.33
2019-01-11T17:13:12.985Z,16.08
2019-01-11T17:15:43.075Z,15.92
2019-01-11T17:18:12.930Z,15.72
2019-01-11T17:20:42.698Z,15.51
2019-01-11T17:23:12.442Z,15.29
2019-01-11T17:25:43.277Z,15.00
2019-01-11T17:28:12.700Z,14.70
2019-01-11T17:30:42.276Z,14.46
2019-01-11T17:33:11.742Z,14.31
2019-01-11T17:35:41.473Z,14.12
2019-01-11T17:38:11.572Z,13.91
2019-01-11T17:40:41.347Z,13.71
2019-01-11T17:43:10.822Z,13.56
2019-01-11T17:45:40.218Z,13.44
2019-01-11T17:48:09.869Z,13.25
2019-01-11T17:50:39.735Z,13.11
2019-01-11T17:53:09.435Z,12.86
2019-01-11T17:55:39.238Z,12.66
2019-01-11T17:58:08.895Z,12.50
2019-01-11T18:00:39.396Z,12.32
2019-01-11T18:03:09.144Z,12.23
2019-01-11T18:05:38.992Z,12.14
2019-01-11T18:08:08.717Z,12.06
2019-01-11T18:10:39.027Z,11.94
2019-01-11T18:13:08.259Z,11.82
2019-01-11T18:15:37.703Z,11.65
2019-01-11T18:18:07.658Z,11.50
2019-01-11T18:20:37.044Z,11.38
2019-01-11T18:23:07.326Z,11.25
2019-01-11T18:25:36.578Z,11.18
2019-01-11T18:28:07.255Z,11.06
2019-01-11T18:30:36.742Z,10.95
2019-01-11T18:33:06.246Z,10.86
2019-01-11T18:35:35.608Z,10.77
2019-01-11T18:38:05.136Z,10.70
2019-01-11T18:40:34.700Z,10.67
2019-01-11T18:43:04.534Z,10.61
2019-01-11T18:45:33.864Z,10.51
2019-01-11T18:48:03.467Z,10.35
2019-01-11T18:50:33.237Z,10.25
2019-01-11T18:53:02.666Z,10.22
2019-01-11T18:55:32.680Z,10.18
2019-01-11T18:58:02.299Z,10.12
2019-01-11T19:00:32.027Z,10.04
2019-01-11T19:03:01.909Z,9.93
2019-01-11T19:05:31.663Z,9.83
2019-01-11T19:08:01.354Z,9.74
2019-01-11T19:10:31.336Z,9.61
2019-01-11T19:13:01.070Z,9.51
2019-01-11T19:15:30.895Z,9.42
2019-01-11T19:18:00.557Z,9.31
2019-01-11T19:20:30.355Z,9.18
2019-01-11T19:23:00.448Z,9.06
2019-01-11T19:25:30.118Z,8.93
2019-01-11T19:28:00.797Z,8.83
2019-01-11T19:30:31.500Z,8.71
2019-01-11T19:33:01.382Z,8.63
2019-01-11T19:35:31.275Z,8.51
2019-01-11T19:38:01.655Z,8.40
2019-01-11T19:40:31.573Z,8.30
2019-01-11T19:43:01.449Z,8.25
2019-01-11T19:45:30.694Z,8.16
2019-01-11T19:48:00.252Z,8.07
2019-01-11T19:50:29.895Z,7.98
2019-01-11T19:52:59.613Z,7.91
2019-01-11T19:55:31.190Z,7.85
2019-01-11T19:58:00.482Z,7.79
2019-01-11T20:00:29.878Z,7.74
2019-01-11T20:02:59.186Z,7.65
2019-01-11T20:05:29.254Z,7.55
2019-01-11T20:07:58.618Z,7.47
2019-01-11T20:10:30.243Z,7.42
2019-01-11T20:12:59.406Z,7.38
2019-01-11T20:15:29.274Z,7.30
2019-01-11T20:17:58.859Z,7.17
2019-01-11T20:20:28.786Z,6.96
2019-01-11T20:23:02.444Z,6.87
2019-01-11T20:25:31.788Z,6.78
2019-01-11T20:28:01.076Z,6.73
2019-01-11T20:30:30.371Z,6.72
2019-01-11T20:33:01.826Z,6.66
2019-01-11T20:35:30.963Z,6.61
2019-01-11T20:38:00.212Z,6.54
2019-01-11T20:40:29.585Z,6.50
2019-01-11T20:42:59.521Z,6.46
2019-01-11T20:45:28.911Z,6.45
2019-01-11T20:47:58.416Z,6.42
2019-01-11T20:50:28.171Z,6.35
2019-01-11T20:52:57.611Z,6.34
2019-01-11T20:55:30.444Z,6.29
2019-01-11T20:57:59.495Z,6.20
2019-01-11T21:00:30.849Z,6.07
2019-01-11T21:03:01.450Z,6.01
2019-01-11T21:05:30.840Z,6.01
2019-01-11T21:08:00.976Z,5.99
2019-01-11T21:10:30.329Z,5.93
2019-01-11T21:13:00.432Z,5.82
2019-01-11T21:15:30.163Z,5.67
2019-01-11T21:17:59.629Z,5.53
2019-01-11T21:20:28.613Z,5.52
2019-01-11T21:22:57.840Z,5.49
2019-01-11T21:25:26.864Z,5.45
2019-01-11T21:27:56.212Z,5.40
2019-01-11T21:30:27.472Z,5.39
2019-01-11T21:32:56.818Z,5.36
2019-01-11T21:35:28.112Z,5.31
2019-01-11T21:37:58.012Z,5.20
2019-01-11T21:40:27.523Z,5.11
2019-01-11T21:42:56.755Z,5.05
2019-01-11T21:45:26.144Z,5.06
2019-01-11T21:47:56.516Z,5.04
2019-01-11T21:50:26.033Z,5.01
2019-01-11T21:52:55.781Z,4.97
2019-01-11T21:55:24.918Z,4.93
2019-01-11T21:57:54.657Z,4.90
2019-01-11T22:00:27.328Z,4.88
2019-01-11T22:02:56.576Z,4.80
2019-01-11T22:05:26.048Z,4.73
2019-01-11T22:07:55.167Z,4.73
2019-01-11T22:10:24.662Z,4.68
2019-01-11T22:12:54.644Z,4.64
2019-01-11T22:15:24.114Z,4.59
2019-01-11T22:17:53.873Z,4.54
2019-01-11T22:20:23.301Z,4.49
2019-01-11T22:22:52.451Z,4.45
2019-01-11T22:25:22.034Z,4.42
2019-01-11T22:27:51.640Z,4.36
2019-01-11T22:30:30.251Z,4.30
2019-01-11T22:32:55.156Z,4.23
2019-01-11T22:35:24.493Z,4.21
2019-01-11T22:37:55.824Z,4.21
2019-01-11T22:40:25.710Z,4.20
2019-01-11T22:43:02.300Z,4.16
2019-01-11T22:45:32.330Z,4.10
2019-01-11T22:48:01.849Z,4.05
2019-01-11T22:50:30.970Z,4.00
2019-01-11T22:53:00.459Z,3.96
2019-01-11T22:55:30.399Z,3.93
2019-01-11T22:57:59.751Z,3.90
2019-01-11T23:00:39.278Z,3.91
2019-01-11T23:03:18.490Z,3.90
2019-01-11T23:05:48.924Z,3.88
2019-01-11T23:08:19.531Z,3.84
2019-01-11T23:10:57.782Z,3.77
2019-01-11T23:13:26.869Z,3.71
2019-01-11T23:15:56.587Z,3.69
2019-01-11T23:18:25.873Z,3.68
2019-01-11T23:20:55.156Z,3.67
2019-01-11T23:23:24.645Z,3.64
2019-01-11T23:25:54.621Z,3.67
2019-01-11T23:28:24.178Z,3.65
2019-01-11T23:30:54.175Z,3.63
2019-01-11T23:33:24.110Z,3.58
2019-01-11T23:35:53.970Z,3.54
2019-01-11T23:38:23.837Z,3.48
2019-01-11T23:40:56.453Z,3.43
2019-01-11T23:43:25.933Z,3.45
2019-01-11T23:45:55.864Z,3.48
2019-01-11T23:48:25.406Z,3.53
2019-01-11T23:50:55.657Z,3.54
2019-01-11T23:53:25.161Z,3.48
2019-01-11T23:55:54.971Z,3.40
2019-01-11T23:58:24.618Z,3.39
